createdAt,value
2019-03-29T00:01:54.076Z,14.58
2019-03-29T00:04:22.620Z,13.10
2019-03-29T00:06:50.863Z,14.15
2019-03-29T00:09:19.112Z,14.98
2019-03-29T00:11:47.343Z,15.05
2019-03-29T00:14:15.941Z,15.35
2019-03-29T00:16:44.422Z,14.80
2019-03-29T00:19:12.671Z,13.68
2019-03-29T00:21:41.262Z,15.32
2019-03-29T00:24:09.551Z,16.12
2019-03-29T00:26:37.825Z,15.03
2019-03-29T00:29:06.080Z,16.02
2019-03-29T00:31:34.694Z,15.25
2019-03-29T00:34:03.018Z,18.67
2019-03-29T00:36:31.552Z,22.90
2019-03-29T00:38:59.799Z,18.10
2019-03-29T00:41:28.327Z,17.77
2019-03-29T00:43:56.582Z,20.32
2019-03-29T00:46:24.828Z,18.20
2019-03-29T00:48:53.089Z,18.15
2019-03-29T00:51:21.326Z,19.27
2019-03-29T00:53:49.587Z,21.42
2019-03-29T00:56:18.070Z,25.75
2019-03-29T00:58:46.326Z,23.15
2019-03-29T01:01:14.560Z,20.68
2019-03-29T01:03:43.155Z,22.20
2019-03-29T01:06:13.041Z,25.37
2019-03-29T01:08:41.662Z,24.23
2019-03-29T01:11:10.243Z,25.57
2019-03-29T01:13:38.475Z,23.92
2019-03-29T01:16:07.016Z,23.73
2019-03-29T01:18:35.264Z,25.57
2019-03-29T01:21:04.434Z,23.67
2019-03-29T01:23:32.983Z,25.70
2019-03-29T01:26:01.368Z,22.52
2019-03-29T01:28:29.947Z,22.58
2019-03-29T01:30:58.213Z,33.65
2019-03-29T01:33:26.714Z,26.35
2019-03-29T01:35:55.226Z,34.30
2019-03-29T01:38:24.571Z,29.15
2019-03-29T01:40:53.300Z,32.42
2019-03-29T01:43:21.551Z,31.30
2019-03-29T01:45:49.962Z,31.35
2019-03-29T01:48:18.220Z,34.67
2019-03-29T01:50:46.477Z,31.95
2019-03-29T01:53:15.013Z,32.03
2019-03-29T01:55:43.264Z,31.80
2019-03-29T01:58:11.507Z,30.45
2019-03-29T02:00:39.757Z,31.45
2019-03-29T02:03:08.008Z,30.02
2019-03-29T02:05:36.247Z,29.72
2019-03-29T02:08:05.054Z,27.93
2019-03-29T02:10:33.647Z,30.10
2019-03-29T02:13:01.896Z,26.85
2019-03-29T02:15:31.133Z,27.65
2019-03-29T02:17:59.396Z,29.10
2019-03-29T02:20:27.943Z,28.42
2019-03-29T02:22:56.212Z,25.35
2019-03-29T02:25:24.459Z,26.57
2019-03-29T02:27:53.032Z,27.25
2019-03-29T02:30:21.435Z,27.37
2019-03-29T02:32:49.675Z,29.32
2019-03-29T02:35:17.925Z,27.50
2019-03-29T02:37:46.533Z,28.02
2019-03-29T02:40:14.760Z,26.85
2019-03-29T02:42:43.360Z,26.57
2019-03-29T02:45:11.899Z,27.73
2019-03-29T02:47:40.159Z,28.42
2019-03-29T02:50:09.218Z,28.85
2019-03-29T02:52:37.564Z,27.67
2019-03-29T02:55:08.796Z,26.85
2019-03-29T02:57:37.371Z,28.47
2019-03-29T03:00:07.498Z,29.35
2019-03-29T03:02:35.754Z,28.52
2019-03-29T03:05:05.022Z,27.10
2019-03-29T03:07:33.580Z,27.70
2019-03-29T03:10:02.086Z,28.00
2019-03-29T03:12:30.511Z,27.35
2019-03-29T03:14:58.768Z,28.60
2019-03-29T03:17:27.160Z,28.07
2019-03-29T03:19:55.689Z,29.23
2019-03-29T03:22:23.939Z,26.55
2019-03-29T03:24:52.364Z,26.68
2019-03-29T03:27:20.608Z,28.27
2019-03-29T03:29:49.178Z,28.85
2019-03-29T03:32:17.424Z,29.60
2019-03-29T03:34:45.878Z,31.48
2019-03-29T03:37:14.468Z,31.80
2019-03-29T03:39:43.058Z,43.13
2019-03-29T03:42:11.308Z,41.45
2019-03-29T03:44:39.556Z,35.33
2019-03-29T03:47:07.809Z,35.90
2019-03-29T03:49:36.063Z,33.20
2019-03-29T03:52:04.696Z,35.25
2019-03-29T03:54:33.189Z,38.45
2019-03-29T03:57:01.845Z,39.33
2019-03-29T03:59:30.175Z,35.23
2019-03-29T04:01:58.808Z,38.98
2019-03-29T04:04:27.047Z,32.88
2019-03-29T04:06:55.293Z,33.85
2019-03-29T04:09:23.536Z,34.30
2019-03-29T04:11:52.842Z,34.73
2019-03-29T04:14:21.164Z,33.15
2019-03-29T04:16:49.726Z,29.90
2019-03-29T04:19:18.317Z,34.25
2019-03-29T04:21:46.804Z,33.35
2019-03-29T04:24:15.071Z,33.78
2019-03-29T04:26:43.304Z,32.40
2019-03-29T04:29:11.580Z,34.58
2019-03-29T04:31:40.225Z,34.85
2019-03-29T04:34:08.487Z,33.02
2019-03-29T04:36:36.721Z,33.35
2019-03-29T04:39:05.649Z,36.60
2019-03-29T04:41:33.886Z,34.80
2019-03-29T04:44:02.852Z,36.88
2019-03-29T04:46:31.343Z,45.83
2019-03-29T04:48:59.587Z,40.98
2019-03-29T04:51:27.995Z,38.08
2019-03-29T04:53:56.596Z,35.40
2019-03-29T04:56:25.181Z,38.13
2019-03-29T04:58:53.771Z,36.13
2019-03-29T05:01:22.357Z,37.67
2019-03-29T05:03:50.989Z,38.25
2019-03-29T05:06:19.235Z,39.60
2019-03-29T05:08:47.487Z,38.85
2019-03-29T05:11:16.092Z,38.83
2019-03-29T05:13:44.336Z,38.30
2019-03-29T05:16:12.601Z,36.83
2019-03-29T05:19:20.292Z,37.35
2019-03-29T05:21:14.992Z,38.00
2019-03-29T05:23:43.239Z,38.33
2019-03-29T05:26:11.485Z,40.55
2019-03-29T05:28:42.756Z,40.15
2019-03-29T05:31:11.007Z,77.00
2019-03-29T05:33:39.527Z,45.10
2019-03-29T05:36:08.112Z,41.00
2019-03-29T05:38:36.695Z,39.35
2019-03-29T05:41:04.957Z,42.60
2019-03-29T05:43:33.467Z,42.85
2019-03-29T05:46:01.734Z,41.48
2019-03-29T05:48:29.980Z,37.20
2019-03-29T05:50:58.513Z,39.92
2019-03-29T05:53:26.799Z,41.37
2019-03-29T05:55:55.090Z,41.13
2019-03-29T05:58:23.660Z,43.65
2019-03-29T06:00:51.910Z,43.73
2019-03-29T06:03:20.388Z,42.25
2019-03-29T06:05:48.650Z,40.45
2019-03-29T06:08:18.232Z,39.80
2019-03-29T06:10:49.338Z,41.83
2019-03-29T06:13:16.741Z,42.35
2019-03-29T06:15:44.997Z,40.60
2019-03-29T06:18:13.478Z,39.35
2019-03-29T06:20:41.777Z,41.77
2019-03-29T06:23:10.318Z,38.65
2019-03-29T06:25:38.696Z,41.23
2019-03-29T06:28:07.234Z,43.25
2019-03-29T06:30:35.819Z,41.83
2019-03-29T06:33:04.063Z,43.58
2019-03-29T06:35:33.151Z,41.42
2019-03-29T06:38:01.994Z,41.08
2019-03-29T06:40:30.245Z,43.70
2019-03-29T06:42:58.503Z,40.63
2019-03-29T06:45:26.841Z,41.50
2019-03-29T06:47:55.104Z,42.78
2019-03-29T06:50:23.352Z,40.98
2019-03-29T06:52:51.875Z,42.33
2019-03-29T06:55:20.487Z,39.33
2019-03-29T06:57:48.751Z,39.35
2019-03-29T07:00:17.335Z,39.60
2019-03-29T07:02:45.916Z,36.13
2019-03-29T07:05:15.048Z,37.75
2019-03-29T07:07:44.669Z,34.98
2019-03-29T07:10:13.006Z,39.05
2019-03-29T07:12:41.275Z,39.50
2019-03-29T07:15:09.512Z,39.33
2019-03-29T07:17:37.776Z,37.78
2019-03-29T07:20:06.918Z,39.50
2019-03-29T07:22:35.248Z,39.83
2019-03-29T07:25:05.843Z,38.65
2019-03-29T07:27:44.631Z,38.78
2019-03-29T07:30:05.740Z,38.42
2019-03-29T07:32:34.047Z,39.40
2019-03-29T07:35:02.296Z,39.63
2019-03-29T07:37:30.861Z,39.80
2019-03-29T07:39:59.445Z,38.83
2019-03-29T07:42:27.703Z,40.70
2019-03-29T07:44:55.943Z,40.28
2019-03-29T07:47:24.501Z,41.63
2019-03-29T07:49:53.136Z,42.80
2019-03-29T07:52:21.456Z,42.08
2019-03-29T07:54:49.832Z,41.00
2019-03-29T07:57:18.099Z,39.42
2019-03-29T07:59:46.712Z,40.88
2019-03-29T08:02:15.295Z,38.73
2019-03-29T08:04:46.362Z,40.05
2019-03-29T08:07:26.337Z,38.88
2019-03-29T08:09:43.823Z,39.10
2019-03-29T08:12:12.080Z,39.58
2019-03-29T08:14:40.348Z,39.58
2019-03-29T08:17:08.600Z,37.35
2019-03-29T08:19:37.466Z,38.30
2019-03-29T08:22:05.884Z,37.65
2019-03-29T08:24:34.432Z,37.42
2019-03-29T08:27:03.019Z,36.45
2019-03-29T08:29:31.636Z,37.95
2019-03-29T08:32:00.295Z,38.28
2019-03-29T08:34:28.550Z,38.98
2019-03-29T08:36:57.102Z,37.08
2019-03-29T08:39:28.247Z,37.13
2019-03-29T08:42:00.330Z,36.00
2019-03-29T08:44:25.618Z,35.30
2019-03-29T08:46:53.861Z,34.60
2019-03-29T08:49:22.111Z,27.98
2019-03-29T08:51:50.638Z,27.82
2019-03-29T08:54:18.896Z,25.25
2019-03-29T08:56:47.509Z,24.30
2019-03-29T08:59:17.570Z,24.37
2019-03-29T09:01:46.468Z,25.40
2019-03-29T09:04:14.723Z,23.85
2019-03-29T09:06:53.353Z,22.50
2019-03-29T09:09:13.664Z,23.73
2019-03-29T09:11:42.099Z,21.45
2019-03-29T09:14:10.899Z,21.48
2019-03-29T09:16:39.683Z,23.57
2019-03-29T09:19:08.477Z,19.45
2019-03-29T09:21:36.937Z,20.97
2019-03-29T09:24:05.363Z,18.45
2019-03-29T09:26:33.880Z,14.68
2019-03-29T09:29:02.620Z,16.45
2019-03-29T09:31:32.364Z,14.23
2019-03-29T09:34:00.820Z,14.78
2019-03-29T09:36:29.255Z,12.88
2019-03-29T09:38:57.686Z,11.38
2019-03-29T09:41:26.480Z,12.85
2019-03-29T09:43:55.277Z,14.28
2019-03-29T09:46:24.091Z,13.70
2019-03-29T09:48:52.874Z,14.15
2019-03-29T09:51:21.316Z,13.13
2019-03-29T09:53:49.752Z,12.55
2019-03-29T09:56:19.089Z,12.60
2019-03-29T09:58:48.484Z,12.82
2019-03-29T10:01:20.517Z,13.08
2019-03-29T10:03:47.352Z,13.00
2019-03-29T10:06:15.800Z,13.55
2019-03-29T10:08:44.535Z,12.50
2019-03-29T10:11:13.363Z,13.35
2019-03-29T10:13:41.831Z,12.40
2019-03-29T10:16:10.848Z,12.05
2019-03-29T10:18:39.600Z,12.10
2019-03-29T10:21:08.068Z,12.95
2019-03-29T10:23:36.490Z,12.50
2019-03-29T10:26:04.935Z,12.88
2019-03-29T10:28:33.366Z,13.60
2019-03-29T10:31:02.126Z,13.15
2019-03-29T10:33:30.567Z,14.55
2019-03-29T10:35:59.004Z,14.47
2019-03-29T10:38:27.790Z,14.93
2019-03-29T10:40:56.580Z,14.85
2019-03-29T10:43:25.041Z,15.30
2019-03-29T10:45:53.471Z,15.08
2019-03-29T10:48:21.928Z,14.35
2019-03-29T10:50:50.359Z,14.28
2019-03-29T10:53:18.803Z,14.07
2019-03-29T10:55:47.268Z,14.95
2019-03-29T10:58:15.758Z,13.83
2019-03-29T11:00:44.189Z,13.45
2019-03-29T11:03:13.284Z,11.75
2019-03-29T11:05:41.716Z,12.98
2019-03-29T11:08:12.060Z,13.90
2019-03-29T11:10:41.168Z,13.98
2019-03-29T11:13:13.643Z,13.18
2019-03-29T11:15:41.655Z,13.05
2019-03-29T11:18:10.127Z,12.80
2019-03-29T11:20:38.563Z,13.38
2019-03-29T11:23:07.293Z,12.93
2019-03-29T11:25:36.187Z,11.80
2019-03-29T11:28:04.651Z,11.63
2019-03-29T11:30:42.237Z,11.22
2019-03-29T11:33:03.878Z,12.58
2019-03-29T11:35:32.348Z,12.35
2019-03-29T11:38:01.155Z,13.00
2019-03-29T11:40:29.601Z,12.60
2019-03-29T11:42:58.104Z,12.28
2019-03-29T11:45:26.563Z,11.90
2019-03-29T11:48:07.298Z,12.25
2019-03-29T11:50:25.141Z,11.90
2019-03-29T11:52:53.574Z,12.85
2019-03-29T11:55:22.095Z,11.65
2019-03-29T11:57:50.888Z,12.75
2019-03-29T12:00:22.407Z,12.82
2019-03-29T12:02:51.128Z,13.25
2019-03-29T12:05:19.570Z,12.93
2019-03-29T12:07:48.026Z,12.43
2019-03-29T12:10:16.463Z,14.28
2019-03-29T12:12:45.275Z,13.90
2019-03-29T12:15:14.399Z,13.53
2019-03-29T12:17:42.831Z,13.95
2019-03-29T12:20:12.191Z,14.55
2019-03-29T12:22:41.060Z,13.58
2019-03-29T12:25:09.848Z,13.55
2019-03-29T12:27:38.650Z,13.00
2019-03-29T12:30:09.588Z,13.55
2019-03-29T12:32:38.380Z,13.22
2019-03-29T12:35:10.059Z,12.43
2019-03-29T12:37:38.736Z,14.18
2019-03-29T12:40:08.318Z,12.50
2019-03-29T12:42:36.764Z,13.40
2019-03-29T12:45:08.183Z,12.90
2019-03-29T12:47:36.628Z,13.22
2019-03-29T12:50:09.543Z,13.38
2019-03-29T12:52:47.129Z,13.20
2019-03-29T12:55:26.955Z,13.62
2019-03-29T12:57:55.416Z,13.85
2019-03-29T13:00:38.263Z,14.03
2019-03-29T13:03:14.626Z,13.10
2019-03-29T13:05:53.321Z,13.22
2019-03-29T13:08:22.374Z,12.90
2019-03-29T13:11:06.009Z,13.88
2019-03-29T13:13:35.099Z,11.85
2019-03-29T13:16:03.514Z,12.50
2019-03-29T13:18:31.948Z,11.93
2019-03-29T13:21:02.363Z,12.28
2019-03-29T13:23:30.796Z,12.55
2019-03-29T13:25:59.235Z,12.60
2019-03-29T13:28:28.023Z,13.35
2019-03-29T13:31:19.811Z,12.35
2019-03-29T13:33:51.316Z,12.60
2019-03-29T13:36:19.928Z,12.35
2019-03-29T13:38:48.739Z,11.95
2019-03-29T13:41:17.260Z,12.82
2019-03-29T13:43:45.691Z,12.33
2019-03-29T13:46:14.481Z,12.73
2019-03-29T13:48:42.912Z,11.68
2019-03-29T13:51:11.358Z,11.97
2019-03-29T13:53:40.123Z,12.13
2019-03-29T13:56:08.786Z,11.85
2019-03-29T13:58:37.227Z,12.28
2019-03-29T14:01:05.643Z,12.73
2019-03-29T14:03:34.091Z,12.30
2019-03-29T14:06:02.855Z,11.57
2019-03-29T14:08:31.319Z,11.68
2019-03-29T14:10:59.759Z,11.70
2019-03-29T14:13:28.509Z,11.88
2019-03-29T14:15:56.947Z,10.93
2019-03-29T14:18:25.404Z,12.53
2019-03-29T14:20:54.178Z,12.10
2019-03-29T14:23:22.599Z,12.18
2019-03-29T14:25:51.353Z,11.20
2019-03-29T14:28:20.135Z,11.60
2019-03-29T14:30:49.041Z,11.22
2019-03-29T14:33:19.525Z,11.80
2019-03-29T14:35:48.267Z,10.45
2019-03-29T14:38:17.055Z,10.88
2019-03-29T14:40:45.851Z,11.65
2019-03-29T14:43:14.333Z,11.05
2019-03-29T14:45:42.847Z,11.57
2019-03-29T14:48:12.271Z,11.53
2019-03-29T14:50:40.723Z,12.10
2019-03-29T14:53:09.152Z,11.43
2019-03-29T14:55:37.596Z,11.97
2019-03-29T14:58:06.569Z,12.00
2019-03-29T15:00:41.398Z,11.95
2019-03-29T15:03:10.692Z,12.75
2019-03-29T15:05:39.877Z,12.65
2019-03-29T15:08:08.648Z,11.85
2019-03-29T15:10:37.078Z,12.40
2019-03-29T15:13:05.535Z,12.93
2019-03-29T15:15:33.984Z,12.63
2019-03-29T15:18:02.739Z,12.03
2019-03-29T15:20:31.163Z,12.68
2019-03-29T15:22:59.648Z,12.35
2019-03-29T15:25:28.130Z,11.70
2019-03-29T15:27:56.757Z,12.07
2019-03-29T15:30:25.490Z,12.80
2019-03-29T15:32:54.276Z,13.28
2019-03-29T15:35:23.065Z,12.95
2019-03-29T15:37:51.492Z,13.75
2019-03-29T15:40:20.277Z,12.65
2019-03-29T15:42:48.771Z,13.00
2019-03-29T15:45:20.563Z,13.53
2019-03-29T15:47:47.375Z,12.98
2019-03-29T15:50:15.832Z,13.10
2019-03-29T15:52:47.779Z,12.85
2019-03-29T15:55:17.369Z,11.63
2019-03-29T15:57:46.192Z,12.23
2019-03-29T16:00:15.383Z,12.65
2019-03-29T16:02:43.815Z,12.63
2019-03-29T16:05:12.557Z,12.23
2019-03-29T16:07:40.993Z,13.35
2019-03-29T16:10:09.945Z,12.73
2019-03-29T16:12:38.733Z,12.18
2019-03-29T16:15:07.714Z,13.15
2019-03-29T16:17:36.409Z,14.07
2019-03-29T16:20:06.667Z,13.95
2019-03-29T16:22:35.463Z,14.13
2019-03-29T16:25:06.817Z,13.38
2019-03-29T16:27:35.247Z,13.83
2019-03-29T16:30:05.795Z,14.28
2019-03-29T16:32:34.218Z,13.83
2019-03-29T16:35:02.661Z,15.38
2019-03-29T16:37:31.102Z,15.53
2019-03-29T16:40:02.336Z,13.93
2019-03-29T16:42:33.093Z,14.87
2019-03-29T16:45:02.042Z,14.95
2019-03-29T16:47:30.494Z,15.00
2019-03-29T16:49:58.927Z,15.30
2019-03-29T16:52:27.377Z,15.65
2019-03-29T16:54:55.907Z,15.35
2019-03-29T16:57:24.462Z,16.05
2019-03-29T16:59:53.929Z,15.18
2019-03-29T17:02:22.378Z,15.18
2019-03-29T17:04:51.151Z,15.85
2019-03-29T17:07:19.587Z,14.47
2019-03-29T17:09:48.325Z,15.20
2019-03-29T17:12:17.692Z,15.13
2019-03-29T17:14:46.452Z,16.67
2019-03-29T17:17:15.217Z,15.90
2019-03-29T17:19:43.632Z,15.95
2019-03-29T17:22:13.067Z,15.25
2019-03-29T17:24:41.491Z,16.00
2019-03-29T17:27:09.930Z,14.93
2019-03-29T17:29:39.996Z,15.18
2019-03-29T17:32:08.812Z,15.28
2019-03-29T17:34:38.257Z,14.13
2019-03-29T17:37:10.547Z,15.38
2019-03-29T17:39:41.453Z,14.73
2019-03-29T17:42:10.403Z,14.05
2019-03-29T17:44:38.836Z,14.85
2019-03-29T17:47:07.509Z,13.80
2019-03-29T17:49:41.826Z,14.43
2019-03-29T17:52:14.891Z,14.65
2019-03-29T17:54:43.501Z,13.22
2019-03-29T17:57:12.021Z,14.83
2019-03-29T17:59:40.447Z,14.40
2019-03-29T18:02:09.892Z,15.80
2019-03-29T18:04:38.408Z,15.55
2019-03-29T18:07:07.141Z,14.95
2019-03-29T18:09:35.610Z,13.85
2019-03-29T18:12:05.432Z,14.05
2019-03-29T18:14:33.856Z,16.23
2019-03-29T18:17:02.776Z,14.85
2019-03-29T18:19:31.455Z,16.07
2019-03-29T18:22:00.352Z,14.53
2019-03-29T18:24:30.208Z,16.32
2019-03-29T18:26:59.103Z,19.67
2019-03-29T18:29:27.538Z,18.05
2019-03-29T18:31:56.283Z,18.80
2019-03-29T18:34:25.484Z,16.57
2019-03-29T18:36:56.156Z,17.37
2019-03-29T18:39:26.198Z,16.77
2019-03-29T18:41:54.644Z,17.52
2019-03-29T18:44:23.421Z,18.07
2019-03-29T18:46:51.855Z,17.82
2019-03-29T18:49:20.323Z,18.25
2019-03-29T18:51:48.858Z,17.42
2019-03-29T18:54:17.577Z,17.87
2019-03-29T18:56:46.398Z,18.65
2019-03-29T18:59:14.816Z,17.65
2019-03-29T19:01:43.527Z,17.67
2019-03-29T19:04:12.220Z,16.85
2019-03-29T19:06:40.664Z,17.85
2019-03-29T19:09:09.096Z,18.32
2019-03-29T19:11:38.567Z,18.05
2019-03-29T19:14:09.235Z,18.35
2019-03-29T19:16:38.037Z,19.07
2019-03-29T19:19:10.303Z,19.55
2019-03-29T19:21:36.987Z,18.48
2019-03-29T19:24:05.837Z,17.87
2019-03-29T19:26:34.635Z,20.45
2019-03-29T19:29:04.496Z,20.90
2019-03-29T19:31:33.240Z,21.57
2019-03-29T19:34:01.677Z,22.67
2019-03-29T19:36:30.383Z,19.02
2019-03-29T19:38:58.920Z,20.25
2019-03-29T19:41:27.623Z,19.30
2019-03-29T19:43:56.131Z,18.55
2019-03-29T19:46:24.575Z,20.48
2019-03-29T19:48:53.351Z,20.90
2019-03-29T19:51:22.040Z,20.43
2019-03-29T19:53:50.879Z,19.05
2019-03-29T19:56:19.445Z,18.35
2019-03-29T19:58:48.316Z,17.75
2019-03-29T20:01:16.781Z,18.50
2019-03-29T20:03:45.604Z,22.40
2019-03-29T20:06:14.292Z,18.73
2019-03-29T20:08:42.720Z,20.50
2019-03-29T20:11:11.160Z,21.37
2019-03-29T20:13:39.939Z,21.27
2019-03-29T20:16:08.731Z,20.02
2019-03-29T20:18:37.451Z,20.23
2019-03-29T20:21:05.900Z,25.68
2019-03-29T20:23:34.328Z,23.27
2019-03-29T20:26:02.780Z,25.25
2019-03-29T20:28:31.227Z,25.92
2019-03-29T20:30:59.668Z,23.73
2019-03-29T20:33:28.102Z,25.08
2019-03-29T20:35:56.821Z,25.00
2019-03-29T20:38:25.612Z,26.93
2019-03-29T20:40:54.312Z,27.22
2019-03-29T20:43:23.004Z,26.30
2019-03-29T20:45:51.428Z,25.97
2019-03-29T20:48:20.171Z,24.75
2019-03-29T20:50:48.968Z,26.55
2019-03-29T20:53:17.402Z,24.43
2019-03-29T20:55:45.845Z,25.48
2019-03-29T20:58:14.628Z,24.43
2019-03-29T21:00:43.415Z,25.10
2019-03-29T21:03:11.847Z,25.97
2019-03-29T21:05:40.375Z,23.00
2019-03-29T21:08:09.113Z,22.75
2019-03-29T21:10:37.783Z,22.32
2019-03-29T21:13:07.314Z,24.25
2019-03-29T21:15:35.919Z,23.10
2019-03-29T21:18:04.353Z,24.43
2019-03-29T21:20:32.800Z,25.12
2019-03-29T21:23:01.234Z,23.62
2019-03-29T21:25:29.919Z,25.80
2019-03-29T21:28:00.666Z,26.85
2019-03-29T21:30:29.988Z,21.60
2019-03-29T21:32:58.423Z,28.10
2019-03-29T21:35:26.847Z,26.48
2019-03-29T21:37:55.288Z,27.20
2019-03-29T21:40:25.243Z,28.85
2019-03-29T21:42:53.711Z,27.37
2019-03-29T21:45:28.565Z,28.65
2019-03-29T21:48:04.117Z,28.17
2019-03-29T21:50:22.752Z,27.65
2019-03-29T21:52:51.276Z,27.00
2019-03-29T21:55:19.702Z,27.17
2019-03-29T21:57:49.530Z,27.50
2019-03-29T22:00:19.665Z,29.63
2019-03-29T22:02:48.102Z,30.62
2019-03-29T22:05:16.538Z,28.27
2019-03-29T22:07:44.977Z,29.82
2019-03-29T22:10:14.816Z,30.37
2019-03-29T22:12:43.445Z,30.20
2019-03-29T22:15:14.552Z,25.48
2019-03-29T22:17:42.997Z,28.87
2019-03-29T22:20:11.754Z,26.70
2019-03-29T22:22:40.521Z,26.45
2019-03-29T22:25:09.381Z,27.77
2019-03-29T22:27:38.264Z,28.65
2019-03-29T22:30:09.135Z,30.45
2019-03-29T22:32:37.575Z,30.23
2019-03-29T22:35:07.449Z,29.05
2019-03-29T22:37:35.888Z,28.73
2019-03-29T22:40:09.089Z,28.25
2019-03-29T22:42:37.563Z,30.45
2019-03-29T22:45:07.724Z,30.45
2019-03-29T22:47:39.139Z,30.32
2019-03-29T22:50:09.191Z,29.12
2019-03-29T22:52:37.631Z,31.30
2019-03-29T22:55:10.143Z,32.40
2019-03-29T22:57:38.882Z,30.30
2019-03-29T23:00:16.099Z,29.12
2019-03-29T23:02:44.543Z,27.20
2019-03-29T23:05:13.239Z,26.70
2019-03-29T23:07:41.695Z,28.15
2019-03-29T23:10:10.297Z,29.60
2019-03-29T23:12:39.088Z,26.73
2019-03-29T23:15:08.711Z,28.00
2019-03-29T23:17:37.240Z,28.73
2019-03-29T23:20:06.070Z,30.27
2019-03-29T23:22:34.502Z,30.60
2019-03-29T23:25:02.926Z,31.93
2019-03-29T23:27:32.663Z,47.30
2019-03-29T23:30:01.083Z,42.13
2019-03-29T23:32:29.838Z,35.08
2019-03-29T23:34:58.332Z,29.63
2019-03-29T23:37:27.118Z,35.48
2019-03-29T23:39:55.547Z,29.40
2019-03-29T23:42:23.971Z,30.77
2019-03-29T23:44:52.678Z,36.33
2019-03-29T23:47:21.368Z,31.15
2019-03-29T23:49:49.824Z,31.33
2019-03-29T23:52:18.252Z,34.75
2019-03-29T23:54:46.746Z,29.25
2019-03-29T23:57:15.491Z,31.50
2019-03-29T23:59:43.924Z,33.50
